Time;durP1;ratioP1;P1;durP2;ratioP2;P2;SDS_P1;SDS_P2;PMS_P1;PMS_P2;Temp;Humidity;BMP_temperature;BMP_pressure;BME280_temperature;BME280_humidity;BME280_pressure;Samples;Min_cycle;Max_cycle;Signal;HPM_P1;HPM_P2
2021/10/05 00:01:43;;;;;;;3.40;0.68;;;12.90;80.00;;;;;;5075553;28;20479;-76
2021/10/05 00:04:09;;;;;;;3.08;0.60;;;12.90;80.00;;;;;;5092660;28;20032;-76
2021/10/05 00:06:34;;;;;;;5.22;0.80;;;12.90;80.10;;;;;;5093918;28;20020;-75
2021/10/05 00:09:01;;;;;;;6.20;0.68;;;12.80;80.30;;;;;;5092277;28;20031;-76
2021/10/05 00:11:27;;;;;;;3.92;0.65;;;12.80;80.40;;;;;;5072233;28;20016;-75
2021/10/05 00:13:53;;;;;;;3.00;0.88;;;12.80;80.40;;;;;;5072477;28;20029;-76
2021/10/05 00:16:19;;;;;;;3.53;0.60;;;12.80;80.60;;;;;;5072939;28;20036;-74
2021/10/05 00:18:45;;;;;;;7.32;1.08;;;12.70;80.70;;;;;;5077203;28;20024;-75
2021/10/05 00:21:10;;;;;;;2.88;0.50;;;12.70;80.70;;;;;;5075677;28;20077;-74
2021/10/05 00:23:36;;;;;;;4.97;0.68;;;12.70;81.00;;;;;;5092557;28;20032;-74
2021/10/05 00:26:02;;;;;;;3.38;0.77;;;12.70;81.00;;;;;;5093124;28;20040;-74
2021/10/05 00:28:27;;;;;;;3.90;0.85;;;12.70;81.10;;;;;;5092737;28;20028;-73
2021/10/05 00:30:53;;;;;;;6.72;0.60;;;12.70;81.10;;;;;;5093664;28;20020;-74
2021/10/05 00:33:18;;;;;;;3.58;1.05;;;12.70;81.10;;;;;;5092165;28;20025;-74
2021/10/05 00:35:44;;;;;;;3.10;0.70;;;12.70;81.20;;;;;;5072118;28;20108;-74
2021/10/05 00:38:10;;;;;;;5.38;0.70;;;12.70;81.20;;;;;;5072102;28;20025;-73
2021/10/05 00:40:35;;;;;;;2.38;0.55;;;12.60;81.20;;;;;;5055505;28;20103;-74
2021/10/05 00:43:01;;;;;;;0.93;0.40;;;12.60;81.90;;;;;;5055640;28;20024;-74
2021/10/05 00:45:27;;;;;;;2.92;0.50;;;12.60;82.10;;;;;;5073179;28;20067;-74
2021/10/05 00:47:52;;;;;;;2.08;0.65;;;12.60;81.60;;;;;;5073151;28;20101;-73
2021/10/05 00:50:18;;;;;;;5.10;0.82;;;12.60;81.70;;;;;;5059878;28;20024;-75
2021/10/05 00:52:44;;;;;;;3.55;0.60;;;12.60;81.90;;;;;;5092367;28;20468;-75
2021/10/05 00:55:11;;;;;;;7.40;1.00;;;12.50;81.80;;;;;;5091989;28;20558;-75
2021/10/05 00:57:37;;;;;;;3.88;0.70;;;12.50;81.90;;;;;;5092060;28;20424;-74
2021/10/05 01:00:05;;;;;;;4.18;0.93;;;12.50;81.90;;;;;;5093327;28;20026;-74
2021/10/05 01:02:31;;;;;;;5.35;0.60;;;12.50;82.00;;;;;;5093134;28;20078;-74
2021/10/05 01:04:56;;;;;;;3.72;0.60;;;12.50;82.00;;;;;;5092310;28;20032;-73
2021/10/05 01:07:22;;;;;;;5.18;0.90;;;12.40;82.10;;;;;;5091336;28;20416;-73
2021/10/05 01:09:48;;;;;;;3.03;0.57;;;12.40;82.20;;;;;;5097403;28;20104;-73
2021/10/05 01:12:14;;;;;;;6.88;0.82;;;12.40;82.20;;;;;;5096028;28;20020;-72
2021/10/05 01:14:41;;;;;;;2.58;0.70;;;12.40;82.30;;;;;;5096992;28;20050;-73
2021/10/05 01:17:08;;;;;;;2.50;0.55;;;12.40;82.40;;;;;;5081512;28;20358;-73
2021/10/05 01:19:33;;;;;;;4.88;0.90;;;12.40;82.50;;;;;;5076865;28;20032;-73
2021/10/05 01:21:59;;;;;;;2.88;0.70;;;12.40;82.80;;;;;;5075762;28;20020;-75
2021/10/05 01:24:25;;;;;;;2.88;0.70;;;12.40;82.80;;;;;;5076473;28;20044;-74
2021/10/05 01:26:58;;;;;;;3.10;0.60;;;12.40;82.80;;;;;;5088924;28;20036;-74
2021/10/05 01:29:28;;;;;;;2.08;0.65;;;12.30;82.70;;;;;;5095488;28;20027;-74
2021/10/05 01:31:56;;;;;;;4.55;0.98;;;12.30;82.80;;;;;;5095319;28;20495;-74
2021/10/05 01:34:22;;;;;;;2.28;0.85;;;12.30;82.90;;;;;;5095905;28;20028;-74
2021/10/05 01:36:50;;;;;;;3.05;0.80;;;12.30;82.80;;;;;;5096638;28;20061;-74
2021/10/05 01:39:29;;;;;;;5.93;1.10;;;12.20;82.80;;;;;;5095401;28;20027;-74
2021/10/05 01:41:58;;;;;;;3.95;0.63;;;12.30;83.00;;;;;;5096789;28;20365;-74
2021/10/05 01:44:24;;;;;;;4.07;0.70;;;12.20;83.00;;;;;;5095470;28;20031;-74
2021/10/05 01:46:50;;;;;;;3.33;0.80;;;12.20;83.10;;;;;;5096767;28;20035;-73
2021/10/05 01:49:17;;;;;;;5.63;0.70;;;12.20;83.30;;;;;;5096601;28;20069;-73
2021/10/05 01:51:43;;;;;;;1.83;0.50;;;12.20;83.40;;;;;;5095309;28;20032;-74
2021/10/05 01:54:10;;;;;;;5.43;0.70;;;12.10;83.40;;;;;;5096326;28;20028;-73
2021/10/05 01:56:36;;;;;;;2.33;0.93;;;12.10;83.50;;;;;;5087016;28;20036;-73
2021/10/05 01:59:02;;;;;;;1.85;0.60;;;12.10;83.60;;;;;;5075084;28;20028;-73
2021/10/05 02:01:28;;;;;;;1.92;0.60;;;12.10;83.80;;;;;;5074720;28;20115;-73
2021/10/05 02:03:53;;;;;;;4.28;0.60;;;12.10;83.80;;;;;;5075008;28;20123;-73
2021/10/05 02:06:19;;;;;;;3.15;0.85;;;12.10;84.60;;;;;;5074596;28;20040;-74
2021/10/05 02:08:44;;;;;;;3.75;0.80;;;12.00;84.60;;;;;;5075824;28;20021;-73
2021/10/05 02:11:10;;;;;;;2.17;0.60;;;12.00;84.10;;;;;;5074628;28;20017;-74
2021/10/05 02:13:36;;;;;;;2.92;0.60;;;12.00;84.20;;;;;;5070470;28;20024;-74
2021/10/05 02:16:02;;;;;;;5.55;0.98;;;12.10;84.40;;;;;;5096039;28;20388;-74
2021/10/05 02:18:28;;;;;;;4.68;0.82;;;12.00;84.40;;;;;;5095754;28;20024;-74
2021/10/05 02:20:54;;;;;;;4.13;0.70;;;12.00;84.50;;;;;;5093970;28;20035;-74
2021/10/05 02:23:19;;;;;;;3.53;0.80;;;12.00;84.70;;;;;;5096290;28;20028;-74
2021/10/05 02:25:45;;;;;;;6.15;0.77;;;11.90;84.70;;;;;;5095403;28;20032;-74
2021/10/05 02:28:11;;;;;;;4.80;0.75;;;12.00;85.00;;;;;;5077731;28;20456;-74
2021/10/05 02:30:37;;;;;;;4.47;0.98;;;11.90;85.00;;;;;;5078715;28;20459;-73
2021/10/05 02:33:03;;;;;;;2.95;1.13;;;11.90;85.10;;;;;;5075258;28;20071;-73
2021/10/05 02:35:29;;;;;;;3.95;0.60;;;11.90;85.10;;;;;;5074337;28;20033;-74
2021/10/05 02:37:54;;;;;;;2.70;0.57;;;11.90;85.30;;;;;;5057507;28;20442;-74
2021/10/05 02:40:20;;;;;;;6.43;0.87;;;11.90;85.40;;;;;;5074150;28;20036;-74
2021/10/05 02:42:46;;;;;;;5.87;0.70;;;11.90;85.50;;;;;;5074219;28;20028;-74
2021/10/05 02:45:12;;;;;;;4.63;0.80;;;11.90;85.60;;;;;;5075362;28;20142;-74
2021/10/05 02:47:38;;;;;;;2.50;0.67;;;11.90;85.70;;;;;;5074985;28;20488;-74
2021/10/05 02:50:04;;;;;;;7.63;1.60;;;11.90;85.90;;;;;;5057164;28;20025;-73
2021/10/05 02:52:30;;;;;;;1.92;0.80;;;11.90;86.00;;;;;;5074930;28;20020;-72
2021/10/05 02:54:55;;;;;;;5.03;0.70;;;11.90;86.10;;;;;;5073921;28;20384;-73
2021/10/05 02:57:21;;;;;;;2.97;0.80;;;11.90;86.30;;;;;;5057025;28;20032;-73
2021/10/05 02:59:47;;;;;;;3.15;1.10;;;11.90;86.40;;;;;;5073481;28;20025;-73
2021/10/05 03:02:14;;;;;;;5.78;0.80;;;11.90;86.40;;;;;;5076050;28;20484;-72
2021/10/05 03:04:41;;;;;;;4.82;0.80;;;11.90;86.50;;;;;;5074704;28;20074;-73
2021/10/05 03:07:07;;;;;;;2.80;0.90;;;11.90;86.60;;;;;;5073662;28;20016;-72
2021/10/05 03:09:34;;;;;;;7.32;0.80;;;11.80;86.70;;;;;;5073304;28;20427;-73
2021/10/05 03:12:00;;;;;;;3.92;0.85;;;11.90;87.10;;;;;;5073492;28;20032;-74
2021/10/05 03:14:25;;;;;;;3.92;1.45;;;12.00;87.60;;;;;;5074934;28;20028;-73
2021/10/05 03:16:51;;;;;;;3.90;0.60;;;11.90;87.40;;;;;;5073254;28;20098;-74
2021/10/05 03:19:17;;;;;;;2.70;0.70;;;11.90;87.50;;;;;;5075808;28;20039;-74
2021/10/05 03:21:42;;;;;;;2.83;0.60;;;11.90;87.50;;;;;;5074271;28;20415;-75
2021/10/05 03:24:10;;;;;;;3.05;0.80;;;11.90;87.60;;;;;;5074318;28;20545;-74
2021/10/05 03:26:36;;;;;;;3.45;0.80;;;11.90;87.60;;;;;;5073817;28;20077;-73
2021/10/05 03:29:03;;;;;;;3.47;0.77;;;11.90;87.80;;;;;;5074230;28;20438;-74
2021/10/05 03:31:29;;;;;;;2.63;1.08;;;11.90;87.70;;;;;;5072161;28;20028;-74
2021/10/05 03:33:54;;;;;;;2.93;0.77;;;11.90;87.70;;;;;;5072765;28;20035;-74
2021/10/05 03:36:20;;;;;;;2.88;0.80;;;11.90;88.30;;;;;;5061239;28;20392;-73
2021/10/05 03:38:45;;;;;;;3.08;0.73;;;12.00;87.70;;;;;;5074108;28;20453;-72
2021/10/05 03:41:12;;;;;;;6.03;1.00;;;11.90;87.90;;;;;;5072982;28;20056;-73
2021/10/05 03:43:38;;;;;;;3.03;1.00;;;11.80;87.80;;;;;;5074118;28;20036;-73
2021/10/05 03:46:05;;;;;;;3.10;1.10;;;11.80;88.20;;;;;;5074071;28;20028;-74
2021/10/05 03:48:31;;;;;;;4.28;0.98;;;11.80;88.10;;;;;;5055955;28;20035;-73
2021/10/05 03:50:57;;;;;;;3.13;1.10;;;11.80;88.40;;;;;;5072739;28;20055;-74
2021/10/05 03:53:23;;;;;;;3.25;0.93;;;11.80;88.40;;;;;;5073899;28;20033;-72
2021/10/05 03:55:54;;;;;;;4.13;0.90;;;11.70;88.50;;;;;;5073758;28;20078;-72
2021/10/05 03:58:21;;;;;;;3.07;1.00;;;11.70;88.80;;;;;;5092321;28;20028;-72
2021/10/05 04:00:47;;;;;;;2.07;1.00;;;11.70;88.90;;;;;;5092516;28;20035;-72
2021/10/05 04:03:14;;;;;;;2.83;1.05;;;11.60;88.80;;;;;;5092991;28;20057;-73
2021/10/05 04:05:40;;;;;;;4.70;1.20;;;11.60;88.90;;;;;;5093702;28;20067;-74
2021/10/05 04:08:06;;;;;;;3.17;1.30;;;11.60;89.20;;;;;;5093101;28;20082;-74
2021/10/05 04:10:32;;;;;;;5.50;1.20;;;11.60;89.10;;;;;;5093771;28;20134;-72
2021/10/05 04:12:57;;;;;;;5.17;1.53;;;11.60;89.00;;;;;;5093876;28;20031;-74
2021/10/05 04:15:23;;;;;;;3.80;0.80;;;11.60;89.30;;;;;;5093796;28;20032;-72
2021/10/05 04:17:49;;;;;;;3.40;0.80;;;11.60;89.40;;;;;;5092512;28;20036;-74
2021/10/05 04:20:15;;;;;;;2.80;1.00;;;11.50;89.40;;;;;;5092366;28;20487;-74
2021/10/05 04:22:41;;;;;;;5.50;1.27;;;11.50;89.60;;;;;;5073446;28;20056;-74
2021/10/05 04:25:08;;;;;;;3.00;0.77;;;11.50;89.60;;;;;;5091855;28;20079;-76
2021/10/05 04:27:34;;;;;;;3.70;0.90;;;11.50;89.70;;;;;;5082762;28;20031;-76
2021/10/05 04:30:00;;;;;;;2.70;0.93;;;11.50;89.90;;;;;;5073522;28;20032;-75
2021/10/05 04:32:27;;;;;;;3.33;1.20;;;11.50;90.00;;;;;;5072576;28;20437;-76
2021/10/05 04:34:53;;;;;;;2.40;1.13;;;11.50;90.00;;;;;;5072243;28;20028;-75
2021/10/05 04:37:18;;;;;;;3.47;1.10;;;11.50;90.00;;;;;;5073265;28;20095;-76
2021/10/05 04:39:44;;;;;;;2.50;1.03;;;11.50;90.00;;;;;;5072314;28;20032;-75
2021/10/05 04:42:09;;;;;;;9.17;4.47;;;11.50;90.40;;;;;;5084993;28;20032;-75
2021/10/05 04:44:36;;;;;;;4.90;1.67;;;11.50;90.10;;;;;;5096352;28;20032;-76
2021/10/05 04:47:02;;;;;;;6.63;1.43;;;11.50;90.20;;;;;;5092500;28;20414;-75
2021/10/05 04:49:27;;;;;;;5.77;1.30;;;11.50;90.10;;;;;;5096626;28;20023;-76
2021/10/05 04:51:53;;;;;;;4.67;1.20;;;11.60;90.30;;;;;;5091302;28;20383;-76
2021/10/05 04:54:19;;;;;;;4.10;1.20;;;11.50;90.20;;;;;;5081822;28;20039;-76
2021/10/05 04:56:45;;;;;;;3.87;1.17;;;11.50;90.20;;;;;;5104586;28;20036;-76
2021/10/05 04:59:10;;;;;;;5.82;1.35;;;11.50;90.20;;;;;;5090511;28;20056;-76
2021/10/05 05:01:36;;;;;;;4.90;1.10;;;11.50;90.30;;;;;;5084165;28;20116;-76
2021/10/05 05:04:02;;;;;;;3.97;1.30;;;11.50;90.30;;;;;;5076215;28;20079;-76
2021/10/05 05:06:28;;;;;;;5.03;1.10;;;11.50;90.20;;;;;;5079732;28;20388;-75
2021/10/05 05:08:54;;;;;;;3.37;1.33;;;11.40;90.30;;;;;;5076820;28;20036;-76
2021/10/05 05:11:19;;;;;;;6.33;1.73;;;11.40;90.30;;;;;;5069123;28;20025;-76
2021/10/05 05:13:45;;;;;;;4.33;1.50;;;11.40;90.50;;;;;;5084332;28;20028;-76
2021/10/05 05:16:11;;;;;;;5.23;1.73;;;11.50;90.40;;;;;;5075704;28;20040;-76
2021/10/05 05:18:36;;;;;;;5.33;2.20;;;11.50;90.50;;;;;;5095705;28;20119;-76
2021/10/05 05:21:02;;;;;;;6.03;1.87;;;11.50;90.50;;;;;;5096972;28;20103;-75
2021/10/05 05:23:28;;;;;;;4.05;1.55;;;11.50;90.50;;;;;;5096641;28;20115;-75
2021/10/05 05:25:53;;;;;;;5.17;1.70;;;11.40;90.40;;;;;;5093668;28;20044;-76
2021/10/05 05:28:20;;;;;;;4.23;1.90;;;11.40;90.50;;;;;;5091740;28;20047;-76
2021/10/05 05:30:46;;;;;;;5.53;1.53;;;11.40;90.50;;;;;;5091601;28;20028;-75
2021/10/05 05:33:11;;;;;;;4.67;1.80;;;11.40;90.50;;;;;;5076193;28;20480;-75
2021/10/05 05:35:37;;;;;;;6.57;2.40;;;11.20;90.50;;;;;;5085620;28;20044;-76
2021/10/05 05:38:03;;;;;;;5.63;2.27;;;11.30;90.50;;;;;;5072095;28;20067;-75
2021/10/05 05:40:29;;;;;;;6.10;2.20;;;11.30;90.60;;;;;;5079428;28;20582;-73
2021/10/05 05:42:55;;;;;;;6.30;2.27;;;11.30;90.60;;;;;;5078894;28;20036;-74
2021/10/05 05:45:20;;;;;;;3.93;1.93;;;11.30;90.60;;;;;;5092164;28;20028;-73
2021/10/05 05:47:46;;;;;;;6.37;2.40;;;11.20;90.60;;;;;;5111684;28;20020;-76
2021/10/05 05:50:12;;;;;;;6.77;2.67;;;11.30;90.90;;;;;;5094963;28;20028;-75
2021/10/05 05:52:37;;;;;;;5.07;2.87;;;11.20;90.80;;;;;;5078068;28;20047;-75
2021/10/05 05:55:04;;;;;;;6.83;3.40;;;11.20;90.90;;;;;;5094865;28;20035;-77
2021/10/05 05:57:30;;;;;;;5.80;2.77;;;11.20;91.00;;;;;;5090043;28;20427;-78
2021/10/05 05:59:55;;;;;;;5.17;2.97;;;11.20;91.00;;;;;;5074674;28;20070;-76
2021/10/05 06:02:21;;;;;;;6.17;3.40;;;11.20;91.10;;;;;;5089069;28;20078;-75
2021/10/05 06:04:47;;;;;;;8.27;3.43;;;11.20;91.30;;;;;;5093136;28;20020;-75
2021/10/05 06:07:12;;;;;;;9.17;3.17;;;11.10;91.10;;;;;;5093611;28;20078;-76
2021/10/05 06:09:38;;;;;;;8.47;3.67;;;11.10;91.10;;;;;;5082400;28;20101;-76
2021/10/05 06:12:07;;;;;;;8.70;3.63;;;11.10;91.30;;;;;;5074640;28;20420;-75
2021/10/05 06:14:33;;;;;;;9.33;3.13;;;11.10;91.30;;;;;;5057383;28;20074;-75
2021/10/05 06:17:04;;;;;;;6.77;3.00;;;11.10;91.40;;;;;;5080824;28;20107;-75
2021/10/05 06:19:30;;;;;;;6.60;3.33;;;11.10;91.50;;;;;;5089096;28;20029;-75
2021/10/05 06:21:56;;;;;;;9.17;3.57;;;11.10;91.50;;;;;;5094389;28;20028;-75
2021/10/05 06:24:22;;;;;;;12.93;3.93;;;11.10;91.70;;;;;;5076803;28;20496;-75
2021/10/05 06:26:47;;;;;;;6.93;3.93;;;11.10;91.80;;;;;;5079823;28;20115;-76
2021/10/05 06:29:13;;;;;;;7.67;3.67;;;11.10;91.80;;;;;;5065613;28;20085;-76
2021/10/05 06:31:39;;;;;;;6.17;3.87;;;11.10;91.90;;;;;;5092493;28;20024;-75
2021/10/05 06:34:04;;;;;;;9.33;5.20;;;11.10;91.90;;;;;;5094472;28;20063;-76
2021/10/05 06:36:30;;;;;;;7.90;4.53;;;11.00;92.00;;;;;;5094070;28;20028;-74
2021/10/05 06:38:56;;;;;;;10.70;4.43;;;11.00;92.00;;;;;;5095488;28;20071;-75
2021/10/05 06:41:22;;;;;;;6.37;4.13;;;11.10;92.00;;;;;;5094976;28;20032;-74
2021/10/05 06:43:48;;;;;;;7.67;4.70;;;11.00;92.20;;;;;;5041863;28;20112;-75
2021/10/05 06:46:14;;;;;;;7.40;4.50;;;11.10;92.20;;;;;;5091994;28;20115;-75
2021/10/05 06:48:40;;;;;;;12.73;5.67;;;11.10;92.30;;;;;;5076737;28;20024;-76
2021/10/05 06:51:06;;;;;;;9.70;5.50;;;11.10;92.40;;;;;;5093649;28;20020;-75
2021/10/05 06:53:32;;;;;;;8.40;4.90;;;11.10;92.50;;;;;;5074817;28;20028;-76
2021/10/05 06:55:57;;;;;;;9.10;5.23;;;11.20;92.70;;;;;;5065718;28;20025;-76
2021/10/05 06:58:23;;;;;;;7.07;4.57;;;11.20;92.60;;;;;;5065147;28;20051;-75
2021/10/05 07:00:49;;;;;;;9.00;5.37;;;11.20;92.60;;;;;;5087195;28;20020;-76
2021/10/05 07:03:14;;;;;;;12.37;5.90;;;11.20;92.60;;;;;;5063077;28;20036;-77
2021/10/05 07:05:40;;;;;;;9.60;5.63;;;11.20;92.80;;;;;;5072746;28;20028;-76
2021/10/05 07:08:08;;;;;;;9.70;5.10;;;11.40;92.80;;;;;;5074631;28;20395;-76
2021/10/05 07:10:35;;;;;;;8.93;5.70;;;11.30;92.70;;;;;;5074262;28;20021;-75
2021/10/05 07:13:01;;;;;;;9.60;5.37;;;11.30;92.80;;;;;;5085920;28;20032;-75
2021/10/05 07:15:27;;;;;;;9.03;5.37;;;11.30;92.90;;;;;;5080577;28;20451;-77
2021/10/05 07:17:53;;;;;;;10.90;6.57;;;11.40;92.90;;;;;;5056714;28;20024;-76
2021/10/05 07:20:19;;;;;;;9.50;6.23;;;11.40;92.90;;;;;;5074416;28;20101;-76
2021/10/05 07:22:45;;;;;;;11.23;6.23;;;11.50;92.90;;;;;;5074283;28;20480;-75
2021/10/05 07:25:11;;;;;;;12.40;6.60;;;11.50;92.90;;;;;;5088820;28;20052;-76
2021/10/05 07:27:37;;;;;;;8.57;5.43;;;11.50;93.00;;;;;;5094284;28;20043;-76
2021/10/05 07:30:08;;;;;;;8.93;5.50;;;11.60;93.00;;;;;;5076608;28;20020;-74
2021/10/05 07:32:34;;;;;;;11.43;6.20;;;11.70;93.00;;;;;;5082076;28;20027;-75
2021/10/05 07:35:00;;;;;;;9.13;5.53;;;11.70;93.00;;;;;;5074270;28;20020;-75
2021/10/05 07:37:26;;;;;;;12.30;5.75;;;11.80;93.00;;;;;;5111950;28;20096;-76
2021/10/05 07:39:53;;;;;;;9.88;5.50;;;11.80;92.90;;;;;;5113580;28;20081;-75
2021/10/05 07:42:20;;;;;;;9.25;5.53;;;11.90;92.90;;;;;;5095853;28;20031;-75
2021/10/05 07:44:48;;;;;;;9.98;5.55;;;11.90;92.80;;;;;;5113792;28;20088;-76
2021/10/05 07:47:14;;;;;;;10.70;5.78;;;11.90;92.80;;;;;;5114581;28;20400;-74
2021/10/05 07:49:40;;;;;;;12.23;6.05;;;11.90;92.80;;;;;;5089560;28;20028;-74
2021/10/05 07:52:06;;;;;;;10.90;5.78;;;12.00;92.80;;;;;;5072502;28;20073;-77
2021/10/05 07:54:31;;;;;;;11.27;6.07;;;11.90;92.80;;;;;;5056110;28;20562;-76
2021/10/05 07:56:57;;;;;;;10.75;6.07;;;12.00;92.80;;;;;;5069928;28;20430;-75
2021/10/05 07:59:23;;;;;;;13.50;6.75;;;12.00;92.80;;;;;;5094193;28;20111;-76
2021/10/05 08:01:50;;;;;;;13.20;5.88;;;12.10;92.80;;;;;;5075875;28;20032;-75
2021/10/05 08:04:17;;;;;;;9.48;5.10;;;12.10;92.80;;;;;;5076079;28;20063;-75
2021/10/05 08:06:43;;;;;;;9.60;5.20;;;12.20;92.80;;;;;;5070546;28;20394;-77
2021/10/05 08:09:09;;;;;;;11.60;5.03;;;12.20;92.80;;;;;;5055909;28;20032;-76
2021/10/05 08:11:35;;;;;;;8.77;4.95;;;12.30;92.90;;;;;;5078733;28;20025;-77
2021/10/05 08:14:00;;;;;;;9.43;4.30;;;12.30;92.80;;;;;;5077398;28;20047;-74
2021/10/05 08:16:30;;;;;;;9.82;5.15;;;12.40;92.80;;;;;;5071812;28;20036;-78
2021/10/05 08:19:00;;;;;;;8.23;4.43;;;12.50;92.80;;;;;;5068298;28;20086;-75
2021/10/05 08:21:26;;;;;;;6.63;3.38;;;12.50;92.70;;;;;;5076804;28;20039;-77
2021/10/05 08:23:52;;;;;;;7.20;4.13;;;12.60;92.60;;;;;;5092431;28;20384;-78
2021/10/05 08:26:19;;;;;;;7.63;3.92;;;12.70;92.40;;;;;;5092037;28;20054;-77
2021/10/05 08:28:46;;;;;;;10.88;4.45;;;12.70;92.30;;;;;;5091641;28;20097;-76
2021/10/05 08:31:12;;;;;;;8.98;4.30;;;12.80;92.10;;;;;;5100509;28;20391;-76
2021/10/05 08:33:38;;;;;;;8.32;3.78;;;12.90;92.10;;;;;;5069210;28;20028;-75
2021/10/05 08:36:04;;;;;;;7.97;3.67;;;13.00;91.90;;;;;;5083909;28;20107;-77
2021/10/05 08:38:30;;;;;;;6.43;3.60;;;13.10;91.80;;;;;;5084584;28;20451;-75
2021/10/05 08:40:56;;;;;;;6.82;3.13;;;13.10;91.80;;;;;;5072544;28;20112;-74
2021/10/05 08:43:23;;;;;;;8.07;3.50;;;13.20;91.60;;;;;;5082797;28;20085;-77
2021/10/05 08:45:49;;;;;;;7.75;3.28;;;13.30;91.50;;;;;;5091839;28;20044;-74
2021/10/05 08:48:15;;;;;;;6.63;2.67;;;13.40;91.40;;;;;;5086540;28;20463;-75
2021/10/05 08:50:42;;;;;;;5.65;2.70;;;13.50;91.30;;;;;;5075137;28;20020;-77
2021/10/05 08:53:08;;;;;;;6.45;2.58;;;13.60;91.30;;;;;;5093483;28;20020;-76
2021/10/05 08:55:34;;;;;;;7.85;2.55;;;13.70;91.10;;;;;;5092709;28;20027;-76
2021/10/05 08:58:00;;;;;;;5.50;2.15;;;13.70;90.90;;;;;;5110588;28;20368;-74
2021/10/05 09:00:35;;;;;;;6.93;2.25;;;13.80;90.60;;;;;;5110664;28;20432;-78
2021/10/05 09:03:00;;;;;;;6.30;2.10;;;13.90;90.50;;;;;;5091794;28;20031;-74
2021/10/05 09:05:27;;;;;;;6.80;2.28;;;14.00;90.30;;;;;;5091978;28;20032;-76
2021/10/05 09:07:54;;;;;;;5.28;1.98;;;14.10;90.20;;;;;;5092967;28;20468;-76
2021/10/05 09:10:22;;;;;;;5.22;2.13;;;14.10;90.00;;;;;;5093583;28;20047;-76
2021/10/05 09:12:49;;;;;;;7.22;1.95;;;14.20;89.90;;;;;;5085092;28;20082;-78
2021/10/05 09:15:17;;;;;;;5.53;1.63;;;14.30;89.70;;;;;;5078725;28;20059;-75
2021/10/05 09:17:50;;;;;;;5.20;1.90;;;14.30;89.40;;;;;;5061018;28;20048;-76
2021/10/05 09:20:17;;;;;;;4.05;1.98;;;14.40;89.10;;;;;;5073465;28;20492;-75
2021/10/05 09:22:43;;;;;;;3.60;1.67;;;14.40;89.00;;;;;;5085460;28;20044;-75
2021/10/05 09:25:10;;;;;;;5.57;1.73;;;14.40;88.90;;;;;;5092535;28;20538;-74
2021/10/05 09:27:49;;;;;;;3.38;1.02;;;14.50;88.70;;;;;;5078334;28;20029;-75
2021/10/05 09:30:17;;;;;;;5.13;1.75;;;14.60;88.60;;;;;;5076435;28;20046;-75
2021/10/05 09:32:55;;;;;;;5.63;1.80;;;14.70;88.60;;;;;;5076592;28;20029;-76
2021/10/05 09:35:21;;;;;;;4.18;1.73;;;14.80;88.60;;;;;;5074885;28;20108;-75
2021/10/05 09:37:47;;;;;;;3.75;1.42;;;14.90;88.60;;;;;;5075043;28;20579;-76
2021/10/05 09:40:13;;;;;;;4.93;1.30;;;15.00;88.40;;;;;;5058251;28;20488;-74
2021/10/05 09:42:49;;;;;;;4.47;1.20;;;15.20;87.90;;;;;;5074948;28;20024;-77
2021/10/05 09:45:29;;;;;;;5.18;1.20;;;15.40;87.80;;;;;;5082173;28;20032;-76
2021/10/05 09:47:58;;;;;;;5.05;1.08;;;15.60;87.20;;;;;;5099397;28;20045;-75
2021/10/05 09:50:32;;;;;;;4.57;1.05;;;16.00;86.10;;;;;;5093769;28;20158;-75
2021/10/05 09:53:04;;;;;;;3.28;0.93;;;16.40;86.30;;;;;;5080745;28;20048;-75
2021/10/05 09:55:35;;;;;;;4.72;1.00;;;16.90;85.60;;;;;;5082140;28;20036;-77
2021/10/05 09:58:01;;;;;;;4.75;0.93;;;17.50;83.80;;;;;;5080003;28;20450;-76
2021/10/05 10:00:29;;;;;;;6.70;1.00;;;18.10;82.80;;;;;;5058808;28;20056;-77
2021/10/05 10:02:55;;;;;;;1.80;0.60;;;18.80;81.70;;;;;;5090103;28;20106;-75
2021/10/05 10:05:26;;;;;;;2.58;0.57;;;19.50;80.20;;;;;;5075303;28;20536;-77
2021/10/05 10:07:54;;;;;;;2.05;0.60;;;20.20;77.40;;;;;;5074979;28;20027;-76
2021/10/05 10:10:29;;;;;;;3.22;0.80;;;20.80;75.90;;;;;;5076003;28;20024;-76
2021/10/05 10:12:58;;;;;;;3.20;0.50;;;21.50;73.50;;;;;;5075742;28;20054;-77
2021/10/05 10:15:33;;;;;;;3.30;0.60;;;22.20;71.30;;;;;;5073989;28;20464;-77
2021/10/05 10:18:07;;;;;;;1.80;0.50;;;22.70;68.50;;;;;;5095514;28;20016;-76
2021/10/05 10:20:34;;;;;;;2.50;0.35;;;23.30;65.90;;;;;;5090654;28;20158;-77
2021/10/05 10:23:00;;;;;;;3.65;0.68;;;23.80;64.70;;;;;;5082392;28;20426;-77
2021/10/05 10:25:28;;;;;;;5.78;0.55;;;24.30;61.10;;;;;;5093965;28;20039;-76
2021/10/05 10:27:56;;;;;;;2.05;0.55;;;24.70;59.00;;;;;;5095658;28;20031;-75
2021/10/05 10:30:26;;;;;;;5.10;0.70;;;25.10;58.50;;;;;;5094888;28;20070;-79
2021/10/05 10:33:00;;;;;;;2.28;0.50;;;25.50;55.10;;;;;;5095647;28;20043;-77
2021/10/05 10:35:26;;;;;;;3.00;0.63;;;25.40;52.10;;;;;;5095930;28;20032;-77
2021/10/05 10:37:54;;;;;;;3.10;0.80;;;25.20;52.30;;;;;;5079134;28;20456;-77
2021/10/05 10:40:34;;;;;;;2.83;0.50;;;24.80;51.70;;;;;;5083417;28;20123;-75
2021/10/05 10:43:15;;;;;;;5.78;0.80;;;24.40;53.00;;;;;;5095768;28;20057;-76
2021/10/05 10:45:54;;;;;;;1.75;0.50;;;24.30;52.40;;;;;;5095441;28;20035;-77
2021/10/05 10:48:30;;;;;;;3.25;0.88;;;24.10;52.90;;;;;;5095606;28;20021;-77
2021/10/05 10:50:59;;;;;;;2.35;0.80;;;23.80;52.90;;;;;;5095513;28;20025;-76
2021/10/05 10:53:38;;;;;;;3.10;0.82;;;23.50;53.30;;;;;;5095536;28;20051;-77
2021/10/05 10:56:05;;;;;;;1.30;0.47;;;23.40;53.80;;;;;;5094200;28;20039;-79
2021/10/05 10:58:40;;;;;;;2.20;0.60;;;23.50;54.90;;;;;;5094218;28;20725;-77
2021/10/05 11:01:07;;;;;;;2.88;0.60;;;23.90;54.70;;;;;;5095123;28;20031;-78
2021/10/05 11:03:33;;;;;;;1.80;0.45;;;24.30;54.30;;;;;;5093783;28;20127;-78
2021/10/05 11:05:58;;;;;;;6.47;0.50;;;24.50;53.80;;;;;;5076911;28;20115;-78
2021/10/05 11:08:24;;;;;;;2.92;0.60;;;24.40;52.80;;;;;;5093956;28;20341;-80
2021/10/05 11:10:50;;;;;;;3.08;0.63;;;24.10;52.20;;;;;;5094566;28;20514;-79
2021/10/05 11:13:15;;;;;;;3.20;0.60;;;23.60;52.70;;;;;;5093438;28;20537;-79
2021/10/05 11:15:47;;;;;;;3.53;0.70;;;23.00;53.30;;;;;;5093499;28;20032;-78
2021/10/05 11:18:16;;;;;;;3.55;0.60;;;22.50;54.20;;;;;;5093784;28;20024;-78
2021/10/05 11:20:44;;;;;;;3.53;0.70;;;22.10;55.40;;;;;;5093590;28;20452;-78
2021/10/05 11:23:10;;;;;;;8.02;0.80;;;21.90;55.90;;;;;;5094428;28;20020;-77
2021/10/05 11:25:36;;;;;;;3.25;0.70;;;21.70;56.40;;;;;;5094241;28;20040;-79
2021/10/05 11:28:13;;;;;;;4.57;0.82;;;21.50;57.10;;;;;;5093500;28;20039;-77
2021/10/05 11:30:47;;;;;;;4.25;0.55;;;21.20;57.70;;;;;;5093329;28;20028;-78
2021/10/05 11:33:31;;;;;;;5.93;0.85;;;20.90;58.30;;;;;;5093318;28;20071;-79
2021/10/05 11:35:58;;;;;;;;;;;20.70;59.10;;;;;;5093920;28;20028;-78
2021/10/05 11:38:35;;;;;;;3.08;0.60;;;20.50;60.00;;;;;;5093514;28;19908;-78
2021/10/05 11:41:02;;;;;;;2.88;0.70;;;20.30;60.40;;;;;;5094365;28;20056;-78
2021/10/05 11:43:41;;;;;;;3.20;0.70;;;20.20;60.70;;;;;;5093215;28;20108;-77
2021/10/05 11:46:15;;;;;;;8.77;1.05;;;20.10;61.50;;;;;;5093886;28;20077;-79
2021/10/05 11:48:44;;;;;;;3.45;0.60;;;19.90;61.80;;;;;;5092784;28;20016;-76
2021/10/05 11:51:10;;;;;;;5.40;0.65;;;19.80;61.90;;;;;;5093509;28;20024;-78
2021/10/05 11:53:38;;;;;;;2.50;0.50;;;19.60;62.40;;;;;;5092987;28;20020;-77
2021/10/05 11:56:06;;;;;;;2.95;0.80;;;19.50;63.00;;;;;;5094430;28;20031;-77
2021/10/05 11:58:49;;;;;;;3.10;0.50;;;19.30;63.60;;;;;;5094311;28;20032;-76
2021/10/05 12:01:23;;;;;;;2.00;0.50;;;19.30;64.10;;;;;;5092981;28;20032;-77
2021/10/05 12:03:50;;;;;;;;;;;19.30;64.40;;;;;;5094352;28;20435;-76
2021/10/05 12:06:30;;;;;;;4.20;0.60;;;19.30;64.50;;;;;;5093956;28;19908;-77
2021/10/05 12:08:56;;;;;;;3.53;0.55;;;19.20;64.60;;;;;;5092560;28;20070;-78
2021/10/05 12:11:32;;;;;;;7.13;1.15;;;19.20;64.70;;;;;;5092838;28;20035;-77
2021/10/05 12:14:03;;;;;;;2.50;0.55;;;19.20;65.70;;;;;;5092591;28;20020;-79
2021/10/05 12:16:29;;;;;;;1.58;0.40;;;19.10;65.20;;;;;;5094228;28;20024;-76
2021/10/05 12:19:02;;;;;;;5.50;0.60;;;19.00;65.60;;;;;;5092635;28;20114;-77
2021/10/05 12:21:28;;;;;;;4.17;0.77;;;18.90;66.00;;;;;;5093765;28;20027;-77
2021/10/05 12:23:56;;;;;;;1.52;0.52;;;18.80;66.20;;;;;;5092932;28;20027;-77
2021/10/05 12:26:22;;;;;;;2.70;0.70;;;18.80;66.60;;;;;;5093649;28;20078;-77
2021/10/05 12:29:04;;;;;;;4.00;0.70;;;18.70;66.90;;;;;;5092644;28;20141;-79
2021/10/05 12:31:31;;;;;;;1.63;0.50;;;18.70;67.20;;;;;;5092673;28;20024;-78
2021/10/05 12:34:00;;;;;;;2.95;0.50;;;18.70;67.50;;;;;;5092893;28;20028;-77
2021/10/05 12:36:26;;;;;;;6.13;0.70;;;18.60;67.60;;;;;;5093700;28;20039;-77
2021/10/05 12:38:52;;;;;;;2.88;0.65;;;18.60;68.00;;;;;;5092305;28;20032;-76
2021/10/05 12:41:18;;;;;;;4.32;0.77;;;18.60;68.60;;;;;;5092369;28;20479;-79
2021/10/05 12:43:46;;;;;;;4.57;0.70;;;18.60;69.10;;;;;;5058838;28;20046;-76
2021/10/05 12:46:18;;;;;;;4.18;0.73;;;18.50;69.20;;;;;;5092315;28;20491;-77
2021/10/05 12:48:49;;;;;;;5.88;0.55;;;18.40;69.20;;;;;;5092344;28;20364;-76